sensor_id;sensor_type;location;lat;lon;timestamp;pressure;altitude;pressure_sealevel;temperature;humidity
70952;BME280;69214;55.880;37.542;2023-08-24T00:00:51;98349.41;;;14.55;78.91
70952;BME280;69214;55.880;37.542;2023-08-24T00:03:17;98354.31;;;14.58;78.94
70952;BME280;69214;55.880;37.542;2023-08-24T00:05:43;98347.19;;;14.57;78.91
70952;BME280;69214;55.880;37.542;2023-08-24T00:08:09;98338.38;;;14.61;78.30
70952;BME280;69214;55.880;37.542;2023-08-24T00:10:35;98356.72;;;14.70;78.11
70952;BME280;69214;55.880;37.542;2023-08-24T00:13:02;98341.34;;;14.69;78.24
70952;BME280;69214;55.880;37.542;2023-08-24T00:15:29;98342.97;;;14.70;78.05
70952;BME280;69214;55.880;37.542;2023-08-24T00:17:55;98347.88;;;14.78;77.27
70952;BME280;69214;55.880;37.542;2023-08-24T00:20:21;98353.34;;;14.78;77.66
70952;BME280;69214;55.880;37.542;2023-08-24T00:22:48;98362.69;;;14.77;77.32
70952;BME280;69214;55.880;37.542;2023-08-24T00:25:14;98361.88;;;14.77;77.30
70952;BME280;69214;55.880;37.542;2023-08-24T00:27:40;98358.59;;;14.75;77.59
70952;BME280;69214;55.880;37.542;2023-08-24T00:30:07;98345.72;;;14.70;77.04
70952;BME280;69214;55.880;37.542;2023-08-24T00:32:36;98371.50;;;14.74;77.75
70952;BME280;69214;55.880;37.542;2023-08-24T00:35:03;98369.34;;;14.71;77.87
70952;BME280;69214;55.880;37.542;2023-08-24T00:37:32;98370.44;;;14.70;77.61
70952;BME280;69214;55.880;37.542;2023-08-24T00:40:02;98357.31;;;14.62;77.38
70952;BME280;69214;55.880;37.542;2023-08-24T00:42:41;98365.22;;;14.69;76.77
70952;BME280;69214;55.880;37.542;2023-08-24T00:45:09;98379.50;;;14.71;78.21
70952;BME280;69214;55.880;37.542;2023-08-24T00:47:53;98374.81;;;14.71;76.68
70952;BME280;69214;55.880;37.542;2023-08-24T00:50:19;98360.59;;;14.64;78.27
70952;BME280;69214;55.880;37.542;2023-08-24T00:52:46;98352.63;;;14.68;78.15
70952;BME280;69214;55.880;37.542;2023-08-24T00:55:12;98359.41;;;14.75;77.93
70952;BME280;69214;55.880;37.542;2023-08-24T00:57:40;98369.28;;;14.76;78.20
70952;BME280;69214;55.880;37.542;2023-08-24T01:00:07;98366.59;;;14.71;78.18
70952;BME280;69214;55.880;37.542;2023-08-24T01:02:37;98369.88;;;14.73;78.30
70952;BME280;69214;55.880;37.542;2023-08-24T01:05:03;98367.66;;;14.75;78.53
70952;BME280;69214;55.880;37.542;2023-08-24T01:07:34;98364.38;;;14.73;78.15
70952;BME280;69214;55.880;37.542;2023-08-24T01:10:05;98376.47;;;14.72;77.72
70952;BME280;69214;55.880;37.542;2023-08-24T01:12:50;98370.97;;;14.72;77.57
70952;BME280;69214;55.880;37.542;2023-08-24T01:15:26;98372.34;;;14.75;78.30
70952;BME280;69214;55.880;37.542;2023-08-24T01:17:59;98366.25;;;14.78;77.85
70952;BME280;69214;55.880;37.542;2023-08-24T01:20:26;98353.44;;;14.68;78.36
70952;BME280;69214;55.880;37.542;2023-08-24T01:23:07;98370.66;;;14.79;77.87
70952;BME280;69214;55.880;37.542;2023-08-24T01:25:42;98360.25;;;14.76;77.43
70952;BME280;69214;55.880;37.542;2023-08-24T01:28:12;98368.72;;;14.79;78.26
70952;BME280;69214;55.880;37.542;2023-08-24T01:30:38;98368.47;;;14.76;78.53
70952;BME280;69214;55.880;37.542;2023-08-24T01:33:04;98366.06;;;14.69;78.37
70952;BME280;69214;55.880;37.542;2023-08-24T01:35:31;98372.13;;;14.66;78.73
70952;BME280;69214;55.880;37.542;2023-08-24T01:38:00;98373.78;;;14.62;78.80
70952;BME280;69214;55.880;37.542;2023-08-24T01:40:51;98364.81;;;14.51;77.48
70952;BME280;69214;55.880;37.542;2023-08-24T01:43:21;98384.53;;;14.58;78.50
70952;BME280;69214;55.880;37.542;2023-08-24T01:45:49;98371.94;;;14.52;78.62
70952;BME280;69214;55.880;37.542;2023-08-24T01:48:19;98368.91;;;14.54;78.47
70952;BME280;69214;55.880;37.542;2023-08-24T01:50:46;98381.78;;;14.58;78.27
70952;BME280;69214;55.880;37.542;2023-08-24T01:53:12;98374.41;;;14.54;77.93
70952;BME280;69214;55.880;37.542;2023-08-24T01:55:39;98357.97;;;14.39;78.15
70952;BME280;69214;55.880;37.542;2023-08-24T01:58:06;98376.88;;;14.50;78.48
70952;BME280;69214;55.880;37.542;2023-08-24T02:00:31;98376.91;;;14.45;78.68
70952;BME280;69214;55.880;37.542;2023-08-24T02:02:57;98373.91;;;14.37;78.98
70952;BME280;69214;55.880;37.542;2023-08-24T02:05:24;98363.25;;;14.30;78.79
70952;BME280;69214;55.880;37.542;2023-08-24T02:07:53;98361.91;;;14.22;79.34
70952;BME280;69214;55.880;37.542;2023-08-24T02:10:19;98368.50;;;14.21;79.12
70952;BME280;69214;55.880;37.542;2023-08-24T02:12:45;98380.81;;;14.29;79.38
70952;BME280;69214;55.880;37.542;2023-08-24T02:15:11;98378.63;;;14.26;79.56
70952;BME280;69214;55.880;37.542;2023-08-24T02:17:37;98378.38;;;14.22;79.24
70952;BME280;69214;55.880;37.542;2023-08-24T02:20:05;98382.53;;;14.15;78.87
70952;BME280;69214;55.880;37.542;2023-08-24T02:22:35;98386.63;;;14.17;79.30
70952;BME280;69214;55.880;37.542;2023-08-24T02:25:01;98383.66;;;14.09;79.75
70952;BME280;69214;55.880;37.542;2023-08-24T02:27:32;98396.00;;;14.11;79.77
70952;BME280;69214;55.880;37.542;2023-08-24T02:29:58;98391.63;;;14.05;79.96
70952;BME280;69214;55.880;37.542;2023-08-24T02:32:25;98393.56;;;14.05;79.48
70952;BME280;69214;55.880;37.542;2023-08-24T02:34:51;98396.56;;;14.03;79.58
70952;BME280;69214;55.880;37.542;2023-08-24T02:37:17;98393.56;;;14.05;79.48
70952;BME280;69214;55.880;37.542;2023-08-24T02:39:43;98391.91;;;14.04;79.41
70952;BME280;69214;55.880;37.542;2023-08-24T02:42:09;98388.66;;;13.97;79.49
70952;BME280;69214;55.880;37.542;2023-08-24T02:44:35;98387.53;;;13.98;79.78
70952;BME280;69214;55.880;37.542;2023-08-24T02:47:03;98391.88;;;14.09;79.41
70952;BME280;69214;55.880;37.542;2023-08-24T02:49:30;98398.75;;;14.11;78.84
70952;BME280;69214;55.880;37.542;2023-08-24T02:51:56;98396.28;;;14.10;79.33
70952;BME280;69214;55.880;37.542;2023-08-24T02:54:21;98385.34;;;14.00;79.01
70952;BME280;69214;55.880;37.542;2023-08-24T02:56:48;98384.53;;;13.99;79.09
70952;BME280;69214;55.880;37.542;2023-08-24T02:59:14;98389.16;;;14.04;78.65
70952;BME280;69214;55.880;37.542;2023-08-24T03:01:40;98394.09;;;14.07;79.18
70952;BME280;69214;55.880;37.542;2023-08-24T03:04:07;98395.47;;;14.04;79.08
70952;BME280;69214;55.880;37.542;2023-08-24T03:06:33;98402.88;;;14.04;78.45
70952;BME280;69214;55.880;37.542;2023-08-24T03:09:00;98404.25;;;14.01;79.43
70952;BME280;69214;55.880;37.542;2023-08-24T03:11:29;98410.31;;;13.98;79.38
70952;BME280;69214;55.880;37.542;2023-08-24T03:13:55;98403.19;;;13.92;80.26
70952;BME280;69214;55.880;37.542;2023-08-24T03:16:21;98405.13;;;13.91;80.20
70952;BME280;69214;55.880;37.542;2023-08-24T03:18:47;98407.03;;;13.91;80.00
70952;BME280;69214;55.880;37.542;2023-08-24T03:21:13;98403.75;;;13.89;80.34
70952;BME280;69214;55.880;37.542;2023-08-24T03:23:40;98391.72;;;13.75;80.66
70952;BME280;69214;55.880;37.542;2023-08-24T03:26:06;98406.78;;;13.87;80.30
70952;BME280;69214;55.880;37.542;2023-08-24T03:28:32;98408.97;;;13.90;80.76
70952;BME280;69214;55.880;37.542;2023-08-24T03:31:00;98411.16;;;13.93;80.87
70952;BME280;69214;55.880;37.542;2023-08-24T03:33:27;98409.75;;;13.96;79.97
70952;BME280;69214;55.880;37.542;2023-08-24T03:35:54;98416.91;;;13.97;80.29
70952;BME280;69214;55.880;37.542;2023-08-24T03:38:20;98416.06;;;13.97;80.38
70952;BME280;69214;55.880;37.542;2023-08-24T03:40:46;98415.25;;;13.96;80.25
70952;BME280;69214;55.880;37.542;2023-08-24T03:43:12;98420.19;;;13.94;80.21
70952;BME280;69214;55.880;37.542;2023-08-24T03:45:39;98410.59;;;13.91;80.96
70952;BME280;69214;55.880;37.542;2023-08-24T03:48:07;98414.16;;;13.97;80.50
70952;BME280;69214;55.880;37.542;2023-08-24T03:50:33;98417.44;;;13.99;80.63
70952;BME280;69214;55.880;37.542;2023-08-24T03:52:59;98414.66;;;14.09;79.78
70952;BME280;69214;55.880;37.542;2023-08-24T03:55:25;98413.25;;;14.17;79.41
70952;BME280;69214;55.880;37.542;2023-08-24T03:57:51;98398.41;;;14.23;79.04
70952;BME280;69214;55.880;37.542;2023-08-24T04:00:17;98387.09;;;14.35;78.14
70952;BME280;69214;55.880;37.542;2023-08-24T04:02:44;98384.91;;;14.42;78.38
70952;BME280;69214;55.880;37.542;2023-08-24T04:05:17;98403.72;;;14.64;78.05
70952;BME280;69214;55.880;37.542;2023-08-24T04:07:43;98402.03;;;14.68;77.45
70952;BME280;69214;55.880;37.542;2023-08-24T04:10:11;98392.69;;;14.69;76.95
70952;BME280;69214;55.880;37.542;2023-08-24T04:12:38;98382.03;;;14.62;76.72
70952;BME280;69214;55.880;37.542;2023-08-24T04:15:04;98411.28;;;14.82;77.25
70952;BME280;69214;55.880;37.542;2023-08-24T04:17:33;98415.34;;;14.89;77.02
70952;BME280;69214;55.880;37.542;2023-08-24T04:20:00;98410.69;;;14.90;76.92
70952;BME280;69214;55.880;37.542;2023-08-24T04:22:28;98416.41;;;14.94;76.73
70952;BME280;69214;55.880;37.542;2023-08-24T04:24:54;98428.75;;;14.96;76.28
70952;BME280;69214;55.880;37.542;2023-08-24T04:27:20;98424.63;;;14.99;76.50
70952;BME280;69214;55.880;37.542;2023-08-24T04:29:47;98424.06;;;15.02;76.03
70952;BME280;69214;55.880;37.542;2023-08-24T04:32:13;98421.31;;;15.02;75.42
70952;BME280;69214;55.880;37.542;2023-08-24T04:34:39;98421.34;;;14.97;75.81
70952;BME280;69214;55.880;37.542;2023-08-24T04:37:08;98424.94;;;14.92;76.36
70952;BME280;69214;55.880;37.542;2023-08-24T04:39:34;98422.44;;;14.96;76.44
70952;BME280;69214;55.880;37.542;2023-08-24T04:42:00;98400.53;;;14.85;76.01
70952;BME280;69214;55.880;37.542;2023-08-24T04:44:28;98421.78;;;15.09;75.64
70952;BME280;69214;55.880;37.542;2023-08-24T04:46:53;98422.34;;;15.11;75.61
70952;BME280;69214;55.880;37.542;2023-08-24T04:49:19;98412.19;;;15.06;75.85
70952;BME280;69214;55.880;37.542;2023-08-24T04:51:45;98405.50;;;15.17;75.26
70952;BME280;69214;55.880;37.542;2023-08-24T04:54:11;98407.88;;;15.29;75.37
70952;BME280;69214;55.880;37.542;2023-08-24T04:56:37;98419.28;;;15.46;75.33
70952;BME280;69214;55.880;37.542;2023-08-24T04:59:03;98417.88;;;15.49;74.51
70952;BME280;69214;55.880;37.542;2023-08-24T05:01:29;98424.53;;;15.43;74.28
70952;BME280;69214;55.880;37.542;2023-08-24T05:03:58;98419.94;;;15.33;74.86
70952;BME280;69214;55.880;37.542;2023-08-24T05:06:24;98428.19;;;15.33;75.31
70952;BME280;69214;55.880;37.542;2023-08-24T05:08:50;98421.34;;;15.31;74.99
70952;BME280;69214;55.880;37.542;2023-08-24T05:11:18;98431.53;;;15.30;75.02
70952;BME280;69214;55.880;37.542;2023-08-24T05:13:44;98434.94;;;15.17;75.16
70952;BME280;69214;55.880;37.542;2023-08-24T05:16:11;98419.19;;;14.88;75.71
70952;BME280;69214;55.880;37.542;2023-08-24T05:18:37;98433.03;;;14.73;76.41
70952;BME280;69214;55.880;37.542;2023-08-24T05:21:04;98441.03;;;14.65;76.72
70952;BME280;69214;55.880;37.542;2023-08-24T05:23:30;98413.16;;;14.42;77.03
70952;BME280;69214;55.880;37.542;2023-08-24T05:25:57;98423.56;;;14.40;77.27
70952;BME280;69214;55.880;37.542;2023-08-24T05:28:27;98437.00;;;14.52;77.07
70952;BME280;69214;55.880;37.542;2023-08-24T05:30:53;98421.09;;;14.49;77.41
70952;BME280;69214;55.880;37.542;2023-08-24T05:33:20;98436.66;;;14.64;76.84
70952;BME280;69214;55.880;37.542;2023-08-24T05:35:47;98435.28;;;14.66;76.07
70952;BME280;69214;55.880;37.542;2023-08-24T05:38:14;98434.44;;;14.66;75.94
70952;BME280;69214;55.880;37.542;2023-08-24T05:40:40;98441.63;;;14.62;76.14
70952;BME280;69214;55.880;37.542;2023-08-24T05:43:11;98423.53;;;14.55;75.45
70952;BME280;69214;55.880;37.542;2023-08-24T05:45:37;98436.13;;;14.62;75.78
70952;BME280;69214;55.880;37.542;2023-08-24T05:48:05;98435.84;;;14.63;75.71
70952;BME280;69214;55.880;37.542;2023-08-24T05:50:31;98413.41;;;14.46;76.09
70952;BME280;69214;55.880;37.542;2023-08-24T05:52:57;98434.75;;;14.59;76.38
70952;BME280;69214;55.880;37.542;2023-08-24T05:55:24;98431.69;;;14.66;76.40
70952;BME280;69214;55.880;37.542;2023-08-24T05:57:50;98429.53;;;14.63;76.19
70952;BME280;69214;55.880;37.542;2023-08-24T06:00:16;98442.06;;;14.79;75.97
70952;BME280;69214;55.880;37.542;2023-08-24T06:02:42;98428.69;;;14.67;75.53
70952;BME280;69214;55.880;37.542;2023-08-24T06:05:08;98449.25;;;14.70;75.21
70952;BME280;69214;55.880;37.542;2023-08-24T06:07:35;98450.50;;;14.43;75.39
70952;BME280;69214;55.880;37.542;2023-08-24T06:10:02;98454.38;;;14.27;76.22
70952;BME280;69214;55.880;37.542;2023-08-24T06:12:33;98465.06;;;14.29;76.58
70952;BME280;69214;55.880;37.542;2023-08-24T06:14:59;98473.28;;;14.34;76.87
70952;BME280;69214;55.880;37.542;2023-08-24T06:17:32;98477.66;;;14.40;76.10
70952;BME280;69214;55.880;37.542;2023-08-24T06:20:03;98445.06;;;14.23;75.85
70952;BME280;69214;55.880;37.542;2023-08-24T06:22:33;98486.69;;;14.40;75.79
70952;BME280;69214;55.880;37.542;2023-08-24T06:24:59;98477.94;;;14.43;75.76
70952;BME280;69214;55.880;37.542;2023-08-24T06:27:26;98483.66;;;14.52;75.50
70952;BME280;69214;55.880;37.542;2023-08-24T06:29:53;98480.03;;;14.67;75.46
70952;BME280;69214;55.880;37.542;2023-08-24T06:32:20;98474.13;;;14.88;75.06
70952;BME280;69214;55.880;37.542;2023-08-24T06:34:45;98477.00;;;15.12;74.57
70952;BME280;69214;55.880;37.542;2023-08-24T06:37:11;98468.59;;;15.33;73.55
70952;BME280;69214;55.880;37.542;2023-08-24T06:39:37;98469.53;;;15.57;72.42
70952;BME280;69214;55.880;37.542;2023-08-24T06:42:05;98479.25;;;15.73;71.99
70952;BME280;69214;55.880;37.542;2023-08-24T06:44:32;98478.72;;;15.71;71.87
70952;BME280;69214;55.880;37.542;2023-08-24T06:46:58;98489.00;;;15.61;71.72
70952;BME280;69214;55.880;37.542;2023-08-24T06:49:25;98482.59;;;15.36;72.31
70952;BME280;69214;55.880;37.542;2023-08-24T06:51:51;98487.94;;;15.22;73.44
70952;BME280;69214;55.880;37.542;2023-08-24T06:54:18;98494.22;;;15.28;73.19
70952;BME280;69214;55.880;37.542;2023-08-24T06:56:44;98491.34;;;15.43;72.78
70952;BME280;69214;55.880;37.542;2023-08-24T06:59:10;98485.19;;;15.57;72.84
70952;BME280;69214;55.880;37.542;2023-08-24T07:01:39;98488.09;;;15.70;72.33
70952;BME280;69214;55.880;37.542;2023-08-24T07:04:07;98484.81;;;15.68;71.34
70952;BME280;69214;55.880;37.542;2023-08-24T07:06:34;98496.47;;;15.60;72.08
70952;BME280;69214;55.880;37.542;2023-08-24T07:09:02;98498.16;;;15.51;71.83
70952;BME280;69214;55.880;37.542;2023-08-24T07:11:32;98512.56;;;15.38;72.55
70952;BME280;69214;55.880;37.542;2023-08-24T07:13:58;98508.47;;;15.30;72.54
70952;BME280;69214;55.880;37.542;2023-08-24T07:16:24;98510.13;;;15.31;72.47
70952;BME280;69214;55.880;37.542;2023-08-24T07:18:50;98505.94;;;15.39;72.26
70952;BME280;69214;55.880;37.542;2023-08-24T07:21:16;98484.31;;;15.61;71.48
70952;BME280;69214;55.880;37.542;2023-08-24T07:23:43;98507.53;;;16.08;70.11
70952;BME280;69214;55.880;37.542;2023-08-24T07:26:09;98501.81;;;16.28;69.36
70952;BME280;69214;55.880;37.542;2023-08-24T07:28:35;98510.47;;;16.40;68.78
70952;BME280;69214;55.880;37.542;2023-08-24T07:31:08;98509.66;;;16.40;69.88
70952;BME280;69214;55.880;37.542;2023-08-24T07:33:37;98504.16;;;16.40;69.11
70952;BME280;69214;55.880;37.542;2023-08-24T07:36:06;98514.03;;;16.17;69.38
70952;BME280;69214;55.880;37.542;2023-08-24T07:38:32;98502.59;;;16.05;70.09
70952;BME280;69214;55.880;37.542;2023-08-24T07:40:58;98505.69;;;15.98;70.59
70952;BME280;69214;55.880;37.542;2023-08-24T07:43:24;98508.78;;;16.20;69.91
70952;BME280;69214;55.880;37.542;2023-08-24T07:45:51;98511.81;;;16.43;69.51
70952;BME280;69214;55.880;37.542;2023-08-24T07:48:20;98508.59;;;16.60;68.24
70952;BME280;69214;55.880;37.542;2023-08-24T07:50:46;98515.97;;;16.64;68.65
70952;BME280;69214;55.880;37.542;2023-08-24T07:53:12;98520.72;;;16.59;67.88
70952;BME280;69214;55.880;37.542;2023-08-24T07:55:37;98522.91;;;16.38;68.51
70952;BME280;69214;55.880;37.542;2023-08-24T07:58:03;98523.34;;;16.21;68.63
70952;BME280;69214;55.880;37.542;2023-08-24T08:00:30;98518.19;;;16.14;68.92
70952;BME280;69214;55.880;37.542;2023-08-24T08:02:56;98527.75;;;16.22;69.39
70952;BME280;69214;55.880;37.542;2023-08-24T08:05:22;98524.34;;;16.30;68.59
70952;BME280;69214;55.880;37.542;2023-08-24T08:07:48;98525.06;;;16.41;68.65
70952;BME280;69214;55.880;37.542;2023-08-24T08:10:15;98529.94;;;16.49;67.90
70952;BME280;69214;55.880;37.542;2023-08-24T08:12:45;98528.03;;;16.20;68.17
70952;BME280;69214;55.880;37.542;2023-08-24T08:15:11;98526.47;;;15.85;68.86
70952;BME280;69214;55.880;37.542;2023-08-24T08:17:37;98533.59;;;15.58;70.17
70952;BME280;69214;55.880;37.542;2023-08-24T08:20:03;98533.13;;;15.45;70.17
70952;BME280;69214;55.880;37.542;2023-08-24T08:22:33;98523.53;;;15.38;70.69
70952;BME280;69214;55.880;37.542;2023-08-24T08:25:05;98523.69;;;15.57;70.63
70952;BME280;69214;55.880;37.542;2023-08-24T08:27:32;98520.22;;;15.75;69.94
70952;BME280;69214;55.880;37.542;2023-08-24T08:30:01;98519.06;;;15.81;69.47
70952;BME280;69214;55.880;37.542;2023-08-24T08:32:32;98525.63;;;15.85;69.29
70952;BME280;69214;55.880;37.542;2023-08-24T08:34:58;98516.28;;;15.86;69.53
70952;BME280;69214;55.880;37.542;2023-08-24T08:37:26;98520.41;;;16.12;68.55
70952;BME280;69214;55.880;37.542;2023-08-24T08:39:52;98535.38;;;16.30;67.83
70952;BME280;69214;55.880;37.542;2023-08-24T08:42:20;98537.34;;;16.25;67.62
70952;BME280;69214;55.880;37.542;2023-08-24T08:44:46;98535.28;;;16.11;68.06
70952;BME280;69214;55.880;37.542;2023-08-24T08:47:14;98527.22;;;15.91;68.17
70952;BME280;69214;55.880;37.542;2023-08-24T08:49:42;98528.16;;;15.81;69.16
70952;BME280;69214;55.880;37.542;2023-08-24T08:52:09;98522.78;;;15.95;68.46
70952;BME280;69214;55.880;37.542;2023-08-24T08:54:35;98515.63;;;16.23;67.76
70952;BME280;69214;55.880;37.542;2023-08-24T08:57:04;98524.59;;;16.81;67.54
70952;BME280;69214;55.880;37.542;2023-08-24T08:59:31;98508.44;;;17.69;65.18
70952;BME280;69214;55.880;37.542;2023-08-24T09:02:02;98522.53;;;18.73;61.38
70952;BME280;69214;55.880;37.542;2023-08-24T09:04:32;98524.56;;;19.31;61.29
70952;BME280;69214;55.880;37.542;2023-08-24T09:06:59;98508.72;;;19.82;58.37
70952;BME280;69214;55.880;37.542;2023-08-24T09:09:30;98519.00;;;20.43;56.61
70952;BME280;69214;55.880;37.542;2023-08-24T09:11:56;98527.94;;;20.88;56.24
70952;BME280;69214;55.880;37.542;2023-08-24T09:14:24;98517.13;;;21.26;55.06
70952;BME280;69214;55.880;37.542;2023-08-24T09:16:49;98536.72;;;21.30;54.44
70952;BME280;69214;55.880;37.542;2023-08-24T09:19:18;98533.00;;;20.78;56.67
70952;BME280;69214;55.880;37.542;2023-08-24T09:21:45;98532.38;;;20.19;55.88
70952;BME280;69214;55.880;37.542;2023-08-24T09:24:10;98529.03;;;19.55;57.85
70952;BME280;69214;55.880;37.542;2023-08-24T09:26:37;98540.66;;;19.29;58.85
70952;BME280;69214;55.880;37.542;2023-08-24T09:29:13;98542.25;;;18.94;59.32
70952;BME280;69214;55.880;37.542;2023-08-24T09:31:41;98539.28;;;18.50;59.81
70952;BME280;69214;55.880;37.542;2023-08-24T09:34:09;98541.50;;;18.20;60.79
70952;BME280;69214;55.880;37.542;2023-08-24T09:36:37;98544.56;;;18.19;61.26
70952;BME280;69214;55.880;37.542;2023-08-24T09:39:04;98550.72;;;18.29;60.73
70952;BME280;69214;55.880;37.542;2023-08-24T09:41:40;98535.59;;;18.40;61.54
70952;BME280;69214;55.880;37.542;2023-08-24T09:44:07;98552.56;;;18.48;60.35
70952;BME280;69214;55.880;37.542;2023-08-24T09:46:35;98553.19;;;18.58;60.44
70952;BME280;69214;55.880;37.542;2023-08-24T09:49:08;98541.63;;;18.56;61.15
70952;BME280;69214;55.880;37.542;2023-08-24T09:51:35;98554.00;;;18.59;59.72
70952;BME280;69214;55.880;37.542;2023-08-24T09:54:04;98550.13;;;18.46;60.28
70952;BME280;69214;55.880;37.542;2023-08-24T09:56:34;98535.44;;;18.18;61.13
70952;BME280;69214;55.880;37.542;2023-08-24T09:59:10;98558.38;;;18.32;61.21
70952;BME280;69214;55.880;37.542;2023-08-24T10:01:37;98554.09;;;18.40;59.98
70952;BME280;69214;55.880;37.542;2023-08-24T10:04:05;98537.13;;;18.47;60.20
70952;BME280;69214;55.880;37.542;2023-08-24T10:06:32;98533.53;;;18.60;58.72
70952;BME280;69214;55.880;37.542;2023-08-24T10:09:06;98538.38;;;18.82;59.12
70952;BME280;69214;55.880;37.542;2023-08-24T10:11:37;98542.72;;;19.24;58.75
70952;BME280;69214;55.880;37.542;2023-08-24T10:14:29;98549.41;;;19.45;55.17
70952;BME280;69214;55.880;37.542;2023-08-24T10:16:56;98543.63;;;19.33;56.83
70952;BME280;69214;55.880;37.542;2023-08-24T10:19:25;98555.50;;;19.33;56.51
70952;BME280;69214;55.880;37.542;2023-08-24T10:21:53;98538.78;;;19.38;58.07
70952;BME280;69214;55.880;37.542;2023-08-24T10:24:19;98547.78;;;19.44;55.89
70952;BME280;69214;55.880;37.542;2023-08-24T10:26:50;98533.13;;;19.07;56.47
70952;BME280;69214;55.880;37.542;2023-08-24T10:29:17;98559.97;;;18.93;57.40
70952;BME280;69214;55.880;37.542;2023-08-24T10:31:43;98556.50;;;18.74;58.50
70952;BME280;69214;55.880;37.542;2023-08-24T10:34:10;98561.72;;;18.89;58.12
70952;BME280;69214;55.880;37.542;2023-08-24T10:36:40;98555.03;;;19.18;58.62
70952;BME280;69214;55.880;37.542;2023-08-24T10:39:07;98556.94;;;19.31;56.20
70952;BME280;69214;55.880;37.542;2023-08-24T10:41:49;98557.25;;;19.29;56.23
70952;BME280;69214;55.880;37.542;2023-08-24T10:44:23;98553.59;;;19.20;56.69
70952;BME280;69214;55.880;37.542;2023-08-24T10:47:25;98549.38;;;19.23;55.36
70952;BME280;69214;55.880;37.542;2023-08-24T10:52:33;98572.28;;;19.37;55.21
70952;BME280;69214;55.880;37.542;2023-08-24T10:55:03;98550.72;;;19.25;55.75
70952;BME280;69214;55.880;37.542;2023-08-24T10:57:37;98550.19;;;19.23;56.38
70952;BME280;69214;55.880;37.542;2023-08-24T11:00:11;98572.84;;;19.12;55.50
70952;BME280;69214;55.880;37.542;2023-08-24T11:02:49;98574.94;;;18.79;56.83
70952;BME280;69214;55.880;37.542;2023-08-24T11:08:01;98538.03;;;18.42;58.45
70952;BME280;69214;55.880;37.542;2023-08-24T11:13:07;98564.25;;;19.13;56.00
70952;BME280;69214;55.880;37.542;2023-08-24T11:15:37;98565.06;;;19.14;55.98
70952;BME280;69214;55.880;37.542;2023-08-24T11:18:24;98568.59;;;18.92;58.28
70952;BME280;69214;55.880;37.542;2023-08-24T11:21:11;98555.13;;;18.44;58.15
70952;BME280;69214;55.880;37.542;2023-08-24T11:23:37;98567.66;;;18.09;57.90
70952;BME280;69214;55.880;37.542;2023-08-24T11:26:03;98567.22;;;18.02;58.05
70952;BME280;69214;55.880;37.542;2023-08-24T11:28:30;98564.75;;;18.00;58.48
70952;BME280;69214;55.880;37.542;2023-08-24T11:30:58;98563.03;;;18.04;58.08
70952;BME280;69214;55.880;37.542;2023-08-24T11:33:34;98564.41;;;18.21;58.86
70952;BME280;69214;55.880;37.542;2023-08-24T11:36:03;98583.06;;;18.42;58.03
70952;BME280;69214;55.880;37.542;2023-08-24T11:38:39;98575.34;;;18.72;58.44
70952;BME280;69214;55.880;37.542;2023-08-24T11:41:13;98577.47;;;19.02;57.34
70952;BME280;69214;55.880;37.542;2023-08-24T11:43:46;98576.66;;;19.16;56.82
70952;BME280;69214;55.880;37.542;2023-08-24T11:46:15;98563.06;;;18.92;56.10
70952;BME280;69214;55.880;37.542;2023-08-24T11:48:41;98571.75;;;18.85;55.78
70952;BME280;69214;55.880;37.542;2023-08-24T11:51:11;98568.59;;;18.92;57.01
70952;BME280;69214;55.880;37.542;2023-08-24T11:53:44;98578.28;;;19.17;57.07
70952;BME280;69214;55.880;37.542;2023-08-24T11:56:14;98566.66;;;19.42;55.73
70952;BME280;69214;55.880;37.542;2023-08-24T11:58:42;98565.78;;;19.69;54.70
70952;BME280;69214;55.880;37.542;2023-08-24T12:01:10;98568.28;;;20.01;53.63
70952;BME280;69214;55.880;37.542;2023-08-24T12:03:40;98555.19;;;20.16;52.24
70952;BME280;69214;55.880;37.542;2023-08-24T12:06:14;98568.41;;;20.19;54.12
70952;BME280;69214;55.880;37.542;2023-08-24T12:08:41;98566.44;;;20.19;52.74
70952;BME280;69214;55.880;37.542;2023-08-24T12:11:17;98565.63;;;20.41;54.46
70952;BME280;69214;55.880;37.542;2023-08-24T12:13:48;98561.50;;;20.69;51.19
70952;BME280;69214;55.880;37.542;2023-08-24T12:16:18;98551.41;;;20.74;53.18
70952;BME280;69214;55.880;37.542;2023-08-24T12:18:53;98577.78;;;21.11;53.24
70952;BME280;69214;55.880;37.542;2023-08-24T12:21:23;98568.97;;;21.17;52.60
70952;BME280;69214;55.880;37.542;2023-08-24T12:23:59;98564.94;;;21.23;53.11
70952;BME280;69214;55.880;37.542;2023-08-24T12:26:29;98569.78;;;21.18;51.97
70952;BME280;69214;55.880;37.542;2023-08-24T12:29:15;98567.91;;;20.87;52.42
70952;BME280;69214;55.880;37.542;2023-08-24T12:31:43;98564.75;;;20.63;50.26
70952;BME280;69214;55.880;37.542;2023-08-24T12:34:10;98557.31;;;20.41;50.35
70952;BME280;69214;55.880;37.542;2023-08-24T12:36:37;98569.91;;;20.25;51.19
70952;BME280;69214;55.880;37.542;2023-08-24T12:39:05;98567.97;;;20.03;51.11
70952;BME280;69214;55.880;37.542;2023-08-24T12:41:31;98568.28;;;20.01;51.37
70952;BME280;69214;55.880;37.542;2023-08-24T12:43:57;98570.81;;;19.89;51.78
70952;BME280;69214;55.880;37.542;2023-08-24T12:46:23;98559.28;;;19.73;52.47
70952;BME280;69214;55.880;37.542;2023-08-24T12:48:50;98570.25;;;19.79;52.46
70952;BME280;69214;55.880;37.542;2023-08-24T12:51:16;98559.88;;;19.84;52.15
70952;BME280;69214;55.880;37.542;2023-08-24T12:53:42;98554.31;;;19.84;52.38
70952;BME280;69214;55.880;37.542;2023-08-24T12:56:08;98568.94;;;19.98;52.02
70952;BME280;69214;55.880;37.542;2023-08-24T12:58:34;98564.19;;;19.99;51.88
70952;BME280;69214;55.880;37.542;2023-08-24T13:01:00;98570.63;;;19.86;51.75
70952;BME280;69214;55.880;37.542;2023-08-24T13:03:26;98556.78;;;19.50;52.17